Pierrepont, New York
Current Conditions -  °F | °C
As of 11:15 AM on Sunday 25 Jan 2015 (Local Time) from KMSS Reporting Station
Broken Clouds Broken Clouds  
Wind Chill: -10°   Ceiling: 2800
Heat Index:   Visibility: 10mi
Dew Point: -5°   Wind: 15mph
Humidity: 58%   Direction: 290°WNW
Pressure: 29.89"   Gusts: NA
Location:  44.5792°N, 75.1592°W
Report Text: KMSS 251615Z AUTO 29013KT 10SM BKN028 M14/M21 A2989 RMK AO2 T11391206
Loading
Personal Weather Stations






























Interactive Weather Map New forecast layout! Learn more

10-Day Weather Forecast

Advertisements
Track Severe Weather on mobile